LFOT/TUF METAR and TAF weather

Enter ICAO airport designator
Station Type Date Time Source
LFOT METAR 2021/04/13 07:00 UTC NOAA

LFOT 130700Z AUTO 06010KT 010V080 6000 OVC005 02/02 Q1031 BECMG NSC


Station Type Date Time Source
LFOT Decoded METAR 2021/04/13 07:00 UTC NOAA

Tours, France (LFOT) 47-27N 000-43E 112M
Apr 13, 2021 - 03:00 AM EDT / 2021.04.13 0700 UTC
Wind: from the ENE (060 degrees) at 12 MPH (10 KT) (direction variable):0
Visibility: 3 mile(s):0
Sky conditions: overcast
Temperature: 35 F (2 C)
Windchill: 26 F (-3 C):1
Dew Point: 35 F (2 C)
Relative Humidity: 100%
Pressure (altimeter): 30.45 in. Hg (1031 hPa)
ob: LFOT 130700Z AUTO 06010KT 010V080 6000 OVC005 02/02 Q1031 BECMG NSC
cycle: 7

Station Type Date Time Source
LFOT TAF 2021/04/13 06:21 UTC NOAA

TAF LFOT 130500Z 1306/1406 04010KT CAVOK

Example: see airport list